sensor_id;sensor_type;location;lat;lon;timestamp;temperature;humidity
29207;DHT22;16247;50.840;4.382;2024-02-26T01:53:37;8.90;99.90
29207;DHT22;16247;50.840;4.382;2024-02-26T01:56:04;9.00;99.90
29207;DHT22;16247;50.840;4.382;2024-02-26T01:58:35;8.80;99.90
29207;DHT22;16247;50.840;4.382;2024-02-26T02:01:02;9.00;99.90
29207;DHT22;16247;50.840;4.382;2024-02-26T02:03:49;9.10;99.90
29207;DHT22;16247;50.840;4.382;2024-02-26T02:06:15;9.20;99.90
29207;DHT22;16247;50.840;4.382;2024-02-26T02:08:42;9.10;99.90
29207;DHT22;16247;50.840;4.382;2024-02-26T06:05:35;7.90;99.90
29207;DHT22;16247;50.840;4.382;2024-02-26T06:08:01;7.80;99.90
29207;DHT22;16247;50.840;4.382;2024-02-26T06:10:28;7.70;99.90
29207;DHT22;16247;50.840;4.382;2024-02-26T06:12:53;8.00;99.90
29207;DHT22;16247;50.840;4.382;2024-02-26T06:15:19;7.80;99.90
29207;DHT22;16247;50.840;4.382;2024-02-26T06:17:45;7.70;99.90
29207;DHT22;16247;50.840;4.382;2024-02-26T06:20:11;7.70;99.90
29207;DHT22;16247;50.840;4.382;2024-02-26T06:22:40;7.70;99.90
29207;DHT22;16247;50.840;4.382;2024-02-26T06:25:06;7.80;99.90
29207;DHT22;16247;50.840;4.382;2024-02-26T06:27:32;7.80;99.90
29207;DHT22;16247;50.840;4.382;2024-02-26T06:35:06;7.80;99.90
29207;DHT22;16247;50.840;4.382;2024-02-26T06:42:46;7.80;99.90
29207;DHT22;16247;50.840;4.382;2024-02-26T10:12:29;7.40;99.90
29207;DHT22;16247;50.840;4.382;2024-02-26T18:46:56;7.40;99.90
29207;DHT22;16247;50.840;4.382;2024-02-26T19:16:35;7.20;99.90
29207;DHT22;16247;50.840;4.382;2024-02-26T19:22:19;7.10;99.90
29207;DHT22;16247;50.840;4.382;2024-02-26T19:33:11;7.20;99.90
29207;DHT22;16247;50.840;4.382;2024-02-26T19:35:40;7.20;99.90
29207;DHT22;16247;50.840;4.382;2024-02-26T19:38:07;7.10;99.90
29207;DHT22;16247;50.840;4.382;2024-02-26T19:40:36;7.00;99.90
29207;DHT22;16247;50.840;4.382;2024-02-26T19:43:05;7.20;99.90
29207;DHT22;16247;50.840;4.382;2024-02-26T19:45:31;7.20;99.90
29207;DHT22;16247;50.840;4.382;2024-02-26T19:47:57;7.40;99.90
29207;DHT22;16247;50.840;4.382;2024-02-26T19:50:25;7.10;99.90
29207;DHT22;16247;50.840;4.382;2024-02-26T19:52:52;7.10;99.90
29207;DHT22;16247;50.840;4.382;2024-02-26T19:55:18;7.30;99.90
29207;DHT22;16247;50.840;4.382;2024-02-26T19:57:47;7.20;99.90
29207;DHT22;16247;50.840;4.382;2024-02-26T20:00:12;7.10;99.90
29207;DHT22;16247;50.840;4.382;2024-02-26T20:02:39;7.10;99.90
29207;DHT22;16247;50.840;4.382;2024-02-26T20:05:05;7.30;99.90
29207;DHT22;16247;50.840;4.382;2024-02-26T20:07:30;7.20;99.90
29207;DHT22;16247;50.840;4.382;2024-02-26T20:09:56;7.20;99.90
29207;DHT22;16247;50.840;4.382;2024-02-26T20:14:56;7.00;99.90
29207;DHT22;16247;50.840;4.382;2024-02-26T20:17:22;7.00;99.90
29207;DHT22;16247;50.840;4.382;2024-02-26T20:19:48;7.30;99.90
29207;DHT22;16247;50.840;4.382;2024-02-26T20:22:14;7.30;99.90
29207;DHT22;16247;50.840;4.382;2024-02-26T20:24:41;7.30;99.90
29207;DHT22;16247;50.840;4.382;2024-02-26T20:27:12;7.10;99.90
